Meiji Maru — JM6300 — position and weather

sailwx.info

Track history (hours):
 
Tides and Currents Weather Stations Pressure Air Temp Water Temp Dewpoint Dewpoint Depression Visibility Wind Speed Wind Dir Waves Ship Positions

Meiji Maru

Last reported at 2017-Nov-10 11:14 UTC. Time now 2017-Nov-22 16:40 UTC.
Position N 34°58' E 139°44'.
Warning: this ship's position is 12 days out of date.

Length 46 m; draft 4.8 m.

Type: Tug. MMSI: 431694000.

Date/timePositionNaut miles runAvg speedWind from/ knotsBaromVisibWave heightAir tempDewpointWater temp
2017-Nov-10 11:14N 34°58' E 139°44'3 9.9
2017-Nov-10 10:56N 35°01' E 139°44'4 9.6
2017-Nov-10 10:31N 35°05' E 139°45'5 9.6
2017-Nov-10 10:00N 35°10' E 139°46'510.0
2017-Nov-10 09:30N 35°15' E 139°46'4 8.4
2017-Nov-10 09:01N 35°18' E 139°44'5 9.5
2017-Nov-10 08:31N 35°23' E 139°42'4 8.8
2017-Nov-10 08:01N 35°27' E 139°43'2 4.1
2017-Nov-10 07:30N 35°28' E 139°41'0 0.3
2017-Nov-10 07:01N 35°28' E 139°41'0 0.0
2017-Nov-10 06:31N 35°28' E 139°41'0 0.0
2017-Nov-10 06:00N 35°28' E 139°41'0 0.0
2017-Nov-10 05:31N 35°28' E 139°41'0 0.0
2017-Nov-10 05:01N 35°28' E 139°41'0 0.0
2017-Nov-10 04:31N 35°28' E 139°41'0 0.0
2017-Nov-10 04:01N 35°28' E 139°41'0 0.0
2017-Nov-10 03:31N 35°28' E 139°41'0 0.0
2017-Nov-10 03:01N 35°28' E 139°41'0 0.0
2017-Nov-10 02:31N 35°28' E 139°41'0 0.0
2017-Nov-10 02:00N 35°28' E 139°41'0 0.0
2017-Nov-10 01:31N 35°28' E 139°41'0 0.0
2017-Nov-10 01:01N 35°28' E 139°41'0 0.0
2017-Nov-10 00:30N 35°28' E 139°41'0 0.0
2017-Nov-10 00:00N 35°28' E 139°41'0 0.0
2017-Nov-09 23:30N 35°28' E 139°41'0 0.0
2017-Nov-09 22:57N 35°28' E 139°41'1 1.4
2017-Nov-09 22:30N 35°28' E 139°42'1 1.1
2017-Nov-09 21:50N 35°27' E 139°42'0 0.0
2017-Nov-09 21:29N 35°27' E 139°42'0 0.0
2017-Nov-09 20:56N 35°27' E 139°42'0 0.0
2017-Nov-09 20:29N 35°27' E 139°42'0 0.0
2017-Nov-09 19:59N 35°27' E 139°42'0 0.0
2017-Nov-09 19:29N 35°27' E 139°42'0 0.0
2017-Nov-09 18:56N 35°27' E 139°42'0 0.0
2017-Nov-09 18:23N 35°27' E 139°42'0 0.0
2017-Nov-09 17:59N 35°27' E 139°42'0 0.0
2017-Nov-09 17:29N 35°27' E 139°42'0 0.0
2017-Nov-09 16:59N 35°27' E 139°42'0 0.0
2017-Nov-09 16:29N 35°27' E 139°42'0 0.0
2017-Nov-09 15:56N 35°27' E 139°42'0 0.0
2017-Nov-09 15:29N 35°27' E 139°42'0 0.0
2017-Nov-09 14:56N 35°27' E 139°42'0 0.0
2017-Nov-09 14:26N 35°27' E 139°42'0 0.0
2017-Nov-09 13:53N 35°27' E 139°42'0 0.0
2017-Nov-09 13:23N 35°27' E 139°42'0 0.0
2017-Nov-09 12:59N 35°27' E 139°42'0 0.0
2017-Nov-09 12:26N 35°27' E 139°42'0 0.0
2017-Nov-09 11:56N 35°27' E 139°42'0 0.0
2017-Nov-09 11:29N 35°27' E 139°42'0 0.0
2017-Nov-09 10:56N 35°27' E 139°42'0 0.1
2017-Nov-09 10:31N 35°28' E 139°42'4 7.2
2017-Nov-09 10:00N 35°25' E 139°46'5 9.1
2017-Nov-09 09:30N 35°21' E 139°45'5 9.9
2017-Nov-09 09:00N 35°16' E 139°46'  
Track history (hours):
 
Tides and Currents Weather Stations Pressure Air Temp Water Temp Dewpoint Dewpoint Depression Visibility Wind Speed Wind Dir Waves Ship Positions

Meiji Maru

Last reported at 2017-Nov-10 11:14 UTC. Time now 2017-Nov-22 16:40 UTC.
Position N 34°58' E 139°44'.
Warning: this ship's position is 12 days out of date.

Length 46 m; draft 4.8 m.

Type: Tug. MMSI: 431694000.

Date/timePositionNaut miles runAvg speedWind from/ knotsBaromVisibWave heightAir tempDewpointWater temp
2017-Nov-10 11:14N 34°58' E 139°44'3 9.9
2017-Nov-10 10:56N 35°01' E 139°44'4 9.6
2017-Nov-10 10:31N 35°05' E 139°45'5 9.6
2017-Nov-10 10:00N 35°10' E 139°46'510.0
2017-Nov-10 09:30N 35°15' E 139°46'4 8.4
2017-Nov-10 09:01N 35°18' E 139°44'5 9.5
2017-Nov-10 08:31N 35°23' E 139°42'4 8.8
2017-Nov-10 08:01N 35°27' E 139°43'2 4.1
2017-Nov-10 07:30N 35°28' E 139°41'0 0.3
2017-Nov-10 07:01N 35°28' E 139°41'0 0.0
2017-Nov-10 06:31N 35°28' E 139°41'0 0.0
2017-Nov-10 06:00N 35°28' E 139°41'0 0.0
2017-Nov-10 05:31N 35°28' E 139°41'0 0.0
2017-Nov-10 05:01N 35°28' E 139°41'0 0.0
2017-Nov-10 04:31N 35°28' E 139°41'0 0.0
2017-Nov-10 04:01N 35°28' E 139°41'0 0.0
2017-Nov-10 03:31N 35°28' E 139°41'0 0.0
2017-Nov-10 03:01N 35°28' E 139°41'0 0.0
2017-Nov-10 02:31N 35°28' E 139°41'0 0.0
2017-Nov-10 02:00N 35°28' E 139°41'0 0.0
2017-Nov-10 01:31N 35°28' E 139°41'0 0.0
2017-Nov-10 01:01N 35°28' E 139°41'0 0.0
2017-Nov-10 00:30N 35°28' E 139°41'0 0.0
2017-Nov-10 00:00N 35°28' E 139°41'0 0.0
2017-Nov-09 23:30N 35°28' E 139°41'0 0.0
2017-Nov-09 22:57N 35°28' E 139°41'1 1.4
2017-Nov-09 22:30N 35°28' E 139°42'1 1.1
2017-Nov-09 21:50N 35°27' E 139°42'0 0.0
2017-Nov-09 21:29N 35°27' E 139°42'0 0.0
2017-Nov-09 20:56N 35°27' E 139°42'0 0.0
2017-Nov-09 20:29N 35°27' E 139°42'0 0.0
2017-Nov-09 19:59N 35°27' E 139°42'0 0.0
2017-Nov-09 19:29N 35°27' E 139°42'0 0.0
2017-Nov-09 18:56N 35°27' E 139°42'0 0.0
2017-Nov-09 18:23N 35°27' E 139°42'0 0.0
2017-Nov-09 17:59N 35°27' E 139°42'0 0.0
2017-Nov-09 17:29N 35°27' E 139°42'0 0.0
2017-Nov-09 16:59N 35°27' E 139°42'0 0.0
2017-Nov-09 16:29N 35°27' E 139°42'0 0.0
2017-Nov-09 15:56N 35°27' E 139°42'0 0.0
2017-Nov-09 15:29N 35°27' E 139°42'0 0.0
2017-Nov-09 14:56N 35°27' E 139°42'0 0.0
2017-Nov-09 14:26N 35°27' E 139°42'0 0.0
2017-Nov-09 13:53N 35°27' E 139°42'0 0.0
2017-Nov-09 13:23N 35°27' E 139°42'0 0.0
2017-Nov-09 12:59N 35°27' E 139°42'0 0.0
2017-Nov-09 12:26N 35°27' E 139°42'0 0.0
2017-Nov-09 11:56N 35°27' E 139°42'0 0.0
2017-Nov-09 11:29N 35°27' E 139°42'0 0.0
2017-Nov-09 10:56N 35°27' E 139°42'0 0.1
2017-Nov-09 10:31N 35°28' E 139°42'4 7.2
2017-Nov-09 10:00N 35°25' E 139°46'5 9.1
2017-Nov-09 09:30N 35°21' E 139°45'5 9.9
2017-Nov-09 09:00N 35°16' E 139°46'  

Dump ship's entire track history